sensor_id;sensor_type;location;lat;lon;timestamp;P1;durP1;ratioP1;P2;durP2;ratioP2
25175;SDS011;13135;55.166;61.286;2023-04-16T00:00:54;6.47;;;4.00;;
25175;SDS011;13135;55.166;61.286;2023-04-16T00:03:39;7.50;;;4.90;;
25175;SDS011;13135;55.166;61.286;2023-04-16T00:06:23;7.73;;;4.23;;
25175;SDS011;13135;55.166;61.286;2023-04-16T00:09:07;7.87;;;4.40;;
25175;SDS011;13135;55.166;61.286;2023-04-16T00:11:51;7.23;;;4.43;;
25175;SDS011;13135;55.166;61.286;2023-04-16T00:14:35;8.43;;;4.27;;
25175;SDS011;13135;55.166;61.286;2023-04-16T00:17:20;7.77;;;4.13;;
25175;SDS011;13135;55.166;61.286;2023-04-16T00:20:04;6.80;;;4.63;;
25175;SDS011;13135;55.166;61.286;2023-04-16T00:22:49;7.53;;;4.27;;
25175;SDS011;13135;55.166;61.286;2023-04-16T00:25:34;6.97;;;4.30;;
25175;SDS011;13135;55.166;61.286;2023-04-16T00:28:18;8.63;;;5.00;;
25175;SDS011;13135;55.166;61.286;2023-04-16T00:31:02;7.83;;;4.53;;
25175;SDS011;13135;55.166;61.286;2023-04-16T00:33:48;7.33;;;4.37;;
25175;SDS011;13135;55.166;61.286;2023-04-16T00:36:33;8.33;;;4.80;;
25175;SDS011;13135;55.166;61.286;2023-04-16T00:39:17;6.53;;;4.37;;
25175;SDS011;13135;55.166;61.286;2023-04-16T00:42:02;7.73;;;4.13;;
25175;SDS011;13135;55.166;61.286;2023-04-16T00:44:52;8.60;;;5.23;;
25175;SDS011;13135;55.166;61.286;2023-04-16T00:47:37;6.13;;;4.63;;
25175;SDS011;13135;55.166;61.286;2023-04-16T00:50:24;9.47;;;4.53;;
25175;SDS011;13135;55.166;61.286;2023-04-16T00:53:09;8.63;;;4.50;;
25175;SDS011;13135;55.166;61.286;2023-04-16T00:55:56;8.30;;;4.40;;
25175;SDS011;13135;55.166;61.286;2023-04-16T00:58:40;6.70;;;4.60;;
25175;SDS011;13135;55.166;61.286;2023-04-16T01:01:25;7.60;;;4.60;;
25175;SDS011;13135;55.166;61.286;2023-04-16T01:04:09;9.50;;;4.37;;
25175;SDS011;13135;55.166;61.286;2023-04-16T01:06:53;6.23;;;4.03;;
25175;SDS011;13135;55.166;61.286;2023-04-16T01:09:37;7.93;;;4.33;;
25175;SDS011;13135;55.166;61.286;2023-04-16T01:12:22;8.63;;;3.97;;
25175;SDS011;13135;55.166;61.286;2023-04-16T01:15:06;7.60;;;4.50;;
25175;SDS011;13135;55.166;61.286;2023-04-16T01:17:52;7.57;;;4.10;;
25175;SDS011;13135;55.166;61.286;2023-04-16T01:20:37;9.70;;;4.40;;
25175;SDS011;13135;55.166;61.286;2023-04-16T01:23:22;6.37;;;4.33;;
25175;SDS011;13135;55.166;61.286;2023-04-16T01:26:07;5.57;;;4.00;;
25175;SDS011;13135;55.166;61.286;2023-04-16T01:28:50;8.77;;;4.20;;
25175;SDS011;13135;55.166;61.286;2023-04-16T01:31:36;6.83;;;4.53;;
25175;SDS011;13135;55.166;61.286;2023-04-16T01:34:22;8.03;;;4.33;;
25175;SDS011;13135;55.166;61.286;2023-04-16T01:37:06;6.57;;;3.93;;
25175;SDS011;13135;55.166;61.286;2023-04-16T01:39:51;5.33;;;4.20;;
25175;SDS011;13135;55.166;61.286;2023-04-16T01:42:37;6.30;;;4.20;;
25175;SDS011;13135;55.166;61.286;2023-04-16T01:45:21;8.10;;;4.33;;
25175;SDS011;13135;55.166;61.286;2023-04-16T01:48:06;7.73;;;4.17;;
25175;SDS011;13135;55.166;61.286;2023-04-16T01:50:51;11.70;;;4.30;;
25175;SDS011;13135;55.166;61.286;2023-04-16T01:53:35;7.47;;;4.17;;
25175;SDS011;13135;55.166;61.286;2023-04-16T01:56:18;6.23;;;4.00;;
25175;SDS011;13135;55.166;61.286;2023-04-16T01:59:03;6.47;;;4.30;;
25175;SDS011;13135;55.166;61.286;2023-04-16T02:01:48;9.43;;;4.13;;
25175;SDS011;13135;55.166;61.286;2023-04-16T02:04:33;6.77;;;4.53;;
25175;SDS011;13135;55.166;61.286;2023-04-16T02:07:17;8.37;;;4.03;;
25175;SDS011;13135;55.166;61.286;2023-04-16T02:10:03;7.63;;;4.50;;
25175;SDS011;13135;55.166;61.286;2023-04-16T02:12:47;7.60;;;3.83;;
25175;SDS011;13135;55.166;61.286;2023-04-16T02:15:34;8.93;;;4.73;;
25175;SDS011;13135;55.166;61.286;2023-04-16T02:18:18;7.20;;;4.23;;
25175;SDS011;13135;55.166;61.286;2023-04-16T02:21:05;6.63;;;3.87;;
25175;SDS011;13135;55.166;61.286;2023-04-16T02:23:49;10.77;;;4.50;;
25175;SDS011;13135;55.166;61.286;2023-04-16T02:26:34;7.53;;;4.30;;
25175;SDS011;13135;55.166;61.286;2023-04-16T02:29:21;6.67;;;4.03;;
25175;SDS011;13135;55.166;61.286;2023-04-16T02:32:06;10.00;;;4.70;;
25175;SDS011;13135;55.166;61.286;2023-04-16T02:34:51;13.27;;;4.73;;
25175;SDS011;13135;55.166;61.286;2023-04-16T02:37:35;10.47;;;4.60;;
25175;SDS011;13135;55.166;61.286;2023-04-16T02:40:20;8.60;;;4.63;;
25175;SDS011;13135;55.166;61.286;2023-04-16T02:43:06;9.40;;;4.90;;
25175;SDS011;13135;55.166;61.286;2023-04-16T02:45:51;8.43;;;4.47;;
25175;SDS011;13135;55.166;61.286;2023-04-16T02:48:41;8.80;;;4.80;;
25175;SDS011;13135;55.166;61.286;2023-04-16T02:51:25;10.37;;;4.80;;
25175;SDS011;13135;55.166;61.286;2023-04-16T02:54:09;7.87;;;4.20;;
25175;SDS011;13135;55.166;61.286;2023-04-16T02:56:53;8.40;;;4.03;;
25175;SDS011;13135;55.166;61.286;2023-04-16T02:59:39;8.20;;;4.17;;
25175;SDS011;13135;55.166;61.286;2023-04-16T03:02:23;9.57;;;4.57;;
25175;SDS011;13135;55.166;61.286;2023-04-16T03:05:08;9.47;;;4.63;;
25175;SDS011;13135;55.166;61.286;2023-04-16T03:07:52;8.87;;;4.37;;
25175;SDS011;13135;55.166;61.286;2023-04-16T03:10:39;7.90;;;4.60;;
25175;SDS011;13135;55.166;61.286;2023-04-16T03:13:23;10.90;;;5.83;;
25175;SDS011;13135;55.166;61.286;2023-04-16T03:16:08;9.87;;;4.57;;
25175;SDS011;13135;55.166;61.286;2023-04-16T03:18:53;18.67;;;8.60;;
25175;SDS011;13135;55.166;61.286;2023-04-16T03:21:37;6.63;;;4.50;;
25175;SDS011;13135;55.166;61.286;2023-04-16T03:24:23;9.03;;;4.30;;
25175;SDS011;13135;55.166;61.286;2023-04-16T03:27:09;6.90;;;4.17;;
25175;SDS011;13135;55.166;61.286;2023-04-16T03:29:53;9.57;;;4.67;;
25175;SDS011;13135;55.166;61.286;2023-04-16T03:32:37;9.73;;;4.80;;
25175;SDS011;13135;55.166;61.286;2023-04-16T03:35:21;9.00;;;4.63;;
25175;SDS011;13135;55.166;61.286;2023-04-16T03:38:03;6.93;;;4.13;;
25175;SDS011;13135;55.166;61.286;2023-04-16T03:40:47;7.23;;;4.37;;
25175;SDS011;13135;55.166;61.286;2023-04-16T03:43:31;10.90;;;4.90;;
25175;SDS011;13135;55.166;61.286;2023-04-16T03:46:14;9.03;;;4.47;;
25175;SDS011;13135;55.166;61.286;2023-04-16T03:48:59;9.63;;;4.50;;
25175;SDS011;13135;55.166;61.286;2023-04-16T03:51:46;10.03;;;3.70;;
25175;SDS011;13135;55.166;61.286;2023-04-16T03:54:30;9.27;;;4.27;;
25175;SDS011;13135;55.166;61.286;2023-04-16T03:57:15;11.90;;;6.20;;
25175;SDS011;13135;55.166;61.286;2023-04-16T03:59:59;8.60;;;4.60;;
25175;SDS011;13135;55.166;61.286;2023-04-16T04:02:45;9.77;;;4.10;;
25175;SDS011;13135;55.166;61.286;2023-04-16T04:05:29;6.50;;;4.20;;
25175;SDS011;13135;55.166;61.286;2023-04-16T04:08:14;10.07;;;4.27;;
25175;SDS011;13135;55.166;61.286;2023-04-16T04:10:58;7.83;;;4.00;;
25175;SDS011;13135;55.166;61.286;2023-04-16T04:13:44;6.57;;;3.63;;
25175;SDS011;13135;55.166;61.286;2023-04-16T04:16:31;7.30;;;3.20;;
25175;SDS011;13135;55.166;61.286;2023-04-16T04:19:16;8.70;;;3.33;;
25175;SDS011;13135;55.166;61.286;2023-04-16T04:22:06;7.40;;;3.90;;
25175;SDS011;13135;55.166;61.286;2023-04-16T04:24:50;4.50;;;3.03;;
25175;SDS011;13135;55.166;61.286;2023-04-16T04:27:33;5.70;;;3.50;;
25175;SDS011;13135;55.166;61.286;2023-04-16T04:30:17;6.87;;;3.50;;
25175;SDS011;13135;55.166;61.286;2023-04-16T04:33:02;5.77;;;3.20;;
25175;SDS011;13135;55.166;61.286;2023-04-16T04:35:55;7.93;;;2.93;;
25175;SDS011;13135;55.166;61.286;2023-04-16T04:38:40;6.00;;;2.90;;
25175;SDS011;13135;55.166;61.286;2023-04-16T04:41:26;8.97;;;3.03;;
25175;SDS011;13135;55.166;61.286;2023-04-16T04:44:10;5.90;;;3.10;;
25175;SDS011;13135;55.166;61.286;2023-04-16T04:46:55;6.23;;;2.43;;
25175;SDS011;13135;55.166;61.286;2023-04-16T04:49:40;6.50;;;2.50;;
25175;SDS011;13135;55.166;61.286;2023-04-16T04:52:27;3.83;;;2.40;;
25175;SDS011;13135;55.166;61.286;2023-04-16T04:55:11;5.20;;;2.60;;
25175;SDS011;13135;55.166;61.286;2023-04-16T04:57:57;4.57;;;2.43;;
25175;SDS011;13135;55.166;61.286;2023-04-16T05:00:43;3.60;;;2.40;;
25175;SDS011;13135;55.166;61.286;2023-04-16T05:03:28;4.70;;;2.40;;
25175;SDS011;13135;55.166;61.286;2023-04-16T05:06:12;5.87;;;2.37;;
25175;SDS011;13135;55.166;61.286;2023-04-16T05:08:57;5.53;;;2.50;;
25175;SDS011;13135;55.166;61.286;2023-04-16T05:11:41;3.33;;;2.00;;
25175;SDS011;13135;55.166;61.286;2023-04-16T05:14:27;4.70;;;2.40;;
25175;SDS011;13135;55.166;61.286;2023-04-16T05:17:12;3.80;;;2.37;;
25175;SDS011;13135;55.166;61.286;2023-04-16T05:20:05;4.00;;;2.13;;
25175;SDS011;13135;55.166;61.286;2023-04-16T05:22:50;9.33;;;2.70;;
25175;SDS011;13135;55.166;61.286;2023-04-16T05:25:34;2.77;;;2.23;;
25175;SDS011;13135;55.166;61.286;2023-04-16T05:28:19;3.67;;;2.27;;
25175;SDS011;13135;55.166;61.286;2023-04-16T05:31:04;14.90;;;2.57;;
25175;SDS011;13135;55.166;61.286;2023-04-16T05:33:48;8.73;;;2.67;;
25175;SDS011;13135;55.166;61.286;2023-04-16T05:36:33;4.50;;;2.60;;
25175;SDS011;13135;55.166;61.286;2023-04-16T05:39:18;2.50;;;2.20;;
25175;SDS011;13135;55.166;61.286;2023-04-16T05:42:04;3.47;;;2.10;;
25175;SDS011;13135;55.166;61.286;2023-04-16T05:44:46;3.20;;;2.00;;
25175;SDS011;13135;55.166;61.286;2023-04-16T05:47:27;6.57;;;2.37;;
25175;SDS011;13135;55.166;61.286;2023-04-16T05:50:11;3.10;;;2.50;;
25175;SDS011;13135;55.166;61.286;2023-04-16T05:52:56;6.97;;;2.53;;
25175;SDS011;13135;55.166;61.286;2023-04-16T05:55:40;4.10;;;2.03;;
25175;SDS011;13135;55.166;61.286;2023-04-16T05:58:24;9.00;;;2.43;;
25175;SDS011;13135;55.166;61.286;2023-04-16T06:01:09;3.97;;;2.20;;
25175;SDS011;13135;55.166;61.286;2023-04-16T06:03:54;4.80;;;2.40;;
25175;SDS011;13135;55.166;61.286;2023-04-16T06:06:39;4.87;;;2.13;;
25175;SDS011;13135;55.166;61.286;2023-04-16T06:09:23;2.70;;;2.23;;
25175;SDS011;13135;55.166;61.286;2023-04-16T06:12:09;6.30;;;2.90;;
25175;SDS011;13135;55.166;61.286;2023-04-16T06:14:53;4.97;;;2.53;;
25175;SDS011;13135;55.166;61.286;2023-04-16T06:17:37;6.80;;;2.47;;
25175;SDS011;13135;55.166;61.286;2023-04-16T06:20:25;2.00;;;1.70;;
25175;SDS011;13135;55.166;61.286;2023-04-16T06:23:10;5.30;;;1.90;;
25175;SDS011;13135;55.166;61.286;2023-04-16T06:25:55;3.10;;;2.00;;
25175;SDS011;13135;55.166;61.286;2023-04-16T06:28:40;4.53;;;2.00;;
25175;SDS011;13135;55.166;61.286;2023-04-16T06:31:24;2.63;;;1.73;;
25175;SDS011;13135;55.166;61.286;2023-04-16T06:34:09;3.93;;;1.93;;
25175;SDS011;13135;55.166;61.286;2023-04-16T06:36:56;2.73;;;2.00;;
25175;SDS011;13135;55.166;61.286;2023-04-16T06:39:41;2.47;;;1.70;;
25175;SDS011;13135;55.166;61.286;2023-04-16T06:42:24;1.87;;;1.63;;
25175;SDS011;13135;55.166;61.286;2023-04-16T06:45:10;3.67;;;1.80;;
25175;SDS011;13135;55.166;61.286;2023-04-16T06:47:55;4.87;;;1.93;;
25175;SDS011;13135;55.166;61.286;2023-04-16T06:50:40;5.13;;;2.07;;
25175;SDS011;13135;55.166;61.286;2023-04-16T06:53:24;2.10;;;1.83;;
25175;SDS011;13135;55.166;61.286;2023-04-16T06:56:10;6.33;;;2.30;;
25175;SDS011;13135;55.166;61.286;2023-04-16T06:58:54;4.30;;;2.30;;
25175;SDS011;13135;55.166;61.286;2023-04-16T07:01:43;10.20;;;2.47;;
25175;SDS011;13135;55.166;61.286;2023-04-16T07:04:28;6.23;;;2.20;;
25175;SDS011;13135;55.166;61.286;2023-04-16T07:07:12;7.20;;;2.13;;
25175;SDS011;13135;55.166;61.286;2023-04-16T07:09:57;5.20;;;2.13;;
25175;SDS011;13135;55.166;61.286;2023-04-16T07:12:43;5.30;;;2.40;;
25175;SDS011;13135;55.166;61.286;2023-04-16T07:15:30;3.63;;;1.97;;
25175;SDS011;13135;55.166;61.286;2023-04-16T07:18:14;2.10;;;1.90;;
25175;SDS011;13135;55.166;61.286;2023-04-16T07:20:59;4.73;;;2.33;;
25175;SDS011;13135;55.166;61.286;2023-04-16T07:23:45;4.20;;;1.70;;
25175;SDS011;13135;55.166;61.286;2023-04-16T07:26:29;2.87;;;1.80;;
25175;SDS011;13135;55.166;61.286;2023-04-16T07:29:13;3.67;;;1.90;;
25175;SDS011;13135;55.166;61.286;2023-04-16T07:31:57;8.73;;;2.17;;
25175;SDS011;13135;55.166;61.286;2023-04-16T07:34:42;3.80;;;2.17;;
25175;SDS011;13135;55.166;61.286;2023-04-16T07:37:25;6.23;;;2.03;;
25175;SDS011;13135;55.166;61.286;2023-04-16T07:40:11;5.80;;;1.80;;
25175;SDS011;13135;55.166;61.286;2023-04-16T07:42:57;3.03;;;1.90;;
25175;SDS011;13135;55.166;61.286;2023-04-16T07:45:46;2.47;;;1.80;;
25175;SDS011;13135;55.166;61.286;2023-04-16T07:48:34;2.30;;;1.97;;
25175;SDS011;13135;55.166;61.286;2023-04-16T07:54:21;2.60;;;1.80;;
25175;SDS011;13135;55.166;61.286;2023-04-16T07:57:11;4.50;;;2.00;;
25175;SDS011;13135;55.166;61.286;2023-04-16T07:59:56;4.10;;;1.93;;
25175;SDS011;13135;55.166;61.286;2023-04-16T08:02:43;2.73;;;2.00;;
25175;SDS011;13135;55.166;61.286;2023-04-16T08:05:32;3.57;;;1.90;;
25175;SDS011;13135;55.166;61.286;2023-04-16T08:08:17;3.33;;;1.90;;
25175;SDS011;13135;55.166;61.286;2023-04-16T08:11:06;5.83;;;1.83;;
25175;SDS011;13135;55.166;61.286;2023-04-16T08:13:52;3.93;;;1.83;;
25175;SDS011;13135;55.166;61.286;2023-04-16T08:16:36;10.07;;;2.17;;
25175;SDS011;13135;55.166;61.286;2023-04-16T08:19:23;4.13;;;1.87;;
25175;SDS011;13135;55.166;61.286;2023-04-16T08:22:07;8.63;;;2.50;;
25175;SDS011;13135;55.166;61.286;2023-04-16T08:24:52;3.47;;;2.27;;
25175;SDS011;13135;55.166;61.286;2023-04-16T08:27:38;3.80;;;1.50;;
25175;SDS011;13135;55.166;61.286;2023-04-16T08:30:23;2.53;;;1.77;;
25175;SDS011;13135;55.166;61.286;2023-04-16T08:33:08;1.50;;;1.40;;
25175;SDS011;13135;55.166;61.286;2023-04-16T08:35:53;6.43;;;1.70;;
25175;SDS011;13135;55.166;61.286;2023-04-16T08:38:38;3.92;;;1.95;;
25175;SDS011;13135;55.166;61.286;2023-04-16T08:41:24;3.08;;;1.50;;
25175;SDS011;13135;55.166;61.286;2023-04-16T08:44:13;6.10;;;1.70;;
25175;SDS011;13135;55.166;61.286;2023-04-16T08:46:56;4.12;;;2.08;;
25175;SDS011;13135;55.166;61.286;2023-04-16T08:49:45;2.90;;;1.73;;
25175;SDS011;13135;55.166;61.286;2023-04-16T08:52:30;5.97;;;2.25;;
25175;SDS011;13135;55.166;61.286;2023-04-16T08:55:18;1.95;;;1.58;;
25175;SDS011;13135;55.166;61.286;2023-04-16T08:58:03;6.18;;;1.80;;
25175;SDS011;13135;55.166;61.286;2023-04-16T09:00:46;4.10;;;1.83;;
25175;SDS011;13135;55.166;61.286;2023-04-16T09:03:31;10.48;;;3.12;;
25175;SDS011;13135;55.166;61.286;2023-04-16T09:06:18;3.67;;;1.60;;
25175;SDS011;13135;55.166;61.286;2023-04-16T09:09:03;1.98;;;1.52;;
25175;SDS011;13135;55.166;61.286;2023-04-16T09:11:50;2.80;;;1.90;;
25175;SDS011;13135;55.166;61.286;2023-04-16T09:14:37;3.20;;;1.85;;
25175;SDS011;13135;55.166;61.286;2023-04-16T09:17:22;3.70;;;1.60;;
25175;SDS011;13135;55.166;61.286;2023-04-16T09:20:07;2.55;;;1.40;;
25175;SDS011;13135;55.166;61.286;2023-04-16T09:22:52;5.37;;;1.98;;
25175;SDS011;13135;55.166;61.286;2023-04-16T09:28:52;2.95;;;1.60;;
25175;SDS011;13135;55.166;61.286;2023-04-16T09:31:36;6.75;;;2.67;;
25175;SDS011;13135;55.166;61.286;2023-04-16T09:37:56;4.20;;;1.70;;
25175;SDS011;13135;55.166;61.286;2023-04-16T09:43:56;4.45;;;1.95;;
25175;SDS011;13135;55.166;61.286;2023-04-16T09:46:41;3.28;;;1.37;;
25175;SDS011;13135;55.166;61.286;2023-04-16T09:49:25;3.95;;;1.70;;
25175;SDS011;13135;55.166;61.286;2023-04-16T09:52:12;2.62;;;1.60;;
25175;SDS011;13135;55.166;61.286;2023-04-16T09:54:56;3.58;;;1.67;;
25175;SDS011;13135;55.166;61.286;2023-04-16T09:57:40;1.92;;;1.48;;
25175;SDS011;13135;55.166;61.286;2023-04-16T10:00:25;3.45;;;1.70;;
25175;SDS011;13135;55.166;61.286;2023-04-16T10:03:10;2.92;;;1.40;;
25175;SDS011;13135;55.166;61.286;2023-04-16T10:05:55;3.08;;;1.80;;
25175;SDS011;13135;55.166;61.286;2023-04-16T10:08:46;3.15;;;1.60;;
25175;SDS011;13135;55.166;61.286;2023-04-16T10:11:31;1.58;;;1.37;;
25175;SDS011;13135;55.166;61.286;2023-04-16T10:14:15;3.55;;;1.17;;
25175;SDS011;13135;55.166;61.286;2023-04-16T10:17:02;2.05;;;1.30;;
25175;SDS011;13135;55.166;61.286;2023-04-16T10:19:46;3.22;;;1.50;;
25175;SDS011;13135;55.166;61.286;2023-04-16T10:22:32;3.05;;;2.05;;
25175;SDS011;13135;55.166;61.286;2023-04-16T10:25:17;4.90;;;2.20;;
25175;SDS011;13135;55.166;61.286;2023-04-16T10:35:24;7.07;;;3.65;;
25175;SDS011;13135;55.166;61.286;2023-04-16T10:38:20;7.37;;;3.90;;
25175;SDS011;13135;55.166;61.286;2023-04-16T10:41:04;3.50;;;2.12;;
25175;SDS011;13135;55.166;61.286;2023-04-16T10:43:49;4.80;;;2.20;;
25175;SDS011;13135;55.166;61.286;2023-04-16T10:46:39;2.50;;;1.87;;
25175;SDS011;13135;55.166;61.286;2023-04-16T10:49:24;9.63;;;3.35;;
25175;SDS011;13135;55.166;61.286;2023-04-16T10:52:11;4.18;;;2.03;;
25175;SDS011;13135;55.166;61.286;2023-04-16T10:54:54;3.53;;;1.83;;
25175;SDS011;13135;55.166;61.286;2023-04-16T10:57:39;2.47;;;1.50;;
25175;SDS011;13135;55.166;61.286;2023-04-16T11:00:24;2.70;;;1.40;;
25175;SDS011;13135;55.166;61.286;2023-04-16T11:03:11;2.92;;;1.60;;
25175;SDS011;13135;55.166;61.286;2023-04-16T11:06:11;2.78;;;2.47;;
25175;SDS011;13135;55.166;61.286;2023-04-16T11:08:56;4.20;;;1.70;;
25175;SDS011;13135;55.166;61.286;2023-04-16T11:11:40;3.08;;;1.92;;
25175;SDS011;13135;55.166;61.286;2023-04-16T11:14:25;1.40;;;1.30;;
25175;SDS011;13135;55.166;61.286;2023-04-16T11:17:10;3.17;;;1.37;;
25175;SDS011;13135;55.166;61.286;2023-04-16T11:20:08;1.65;;;1.40;;
25175;SDS011;13135;55.166;61.286;2023-04-16T11:26:41;6.65;;;2.10;;
25175;SDS011;13135;55.166;61.286;2023-04-16T11:29:26;3.50;;;1.92;;
25175;SDS011;13135;55.166;61.286;2023-04-16T11:32:19;6.43;;;1.70;;
25175;SDS011;13135;55.166;61.286;2023-04-16T11:35:44;1.98;;;1.70;;
25175;SDS011;13135;55.166;61.286;2023-04-16T11:38:32;6.57;;;1.60;;
25175;SDS011;13135;55.166;61.286;2023-04-16T11:41:18;3.37;;;1.42;;
25175;SDS011;13135;55.166;61.286;2023-04-16T11:44:15;3.42;;;1.30;;
25175;SDS011;13135;55.166;61.286;2023-04-16T11:46:47;2.67;;;1.55;;
25175;SDS011;13135;55.166;61.286;2023-04-16T11:49:32;6.22;;;1.75;;
25175;SDS011;13135;55.166;61.286;2023-04-16T11:52:24;7.22;;;2.37;;
25175;SDS011;13135;55.166;61.286;2023-04-16T11:55:09;8.43;;;1.80;;
25175;SDS011;13135;55.166;61.286;2023-04-16T11:57:54;2.12;;;1.27;;
25175;SDS011;13135;55.166;61.286;2023-04-16T12:00:43;5.93;;;1.98;;
25175;SDS011;13135;55.166;61.286;2023-04-16T12:03:44;9.65;;;3.45;;
25175;SDS011;13135;55.166;61.286;2023-04-16T12:06:28;8.38;;;3.53;;
25175;SDS011;13135;55.166;61.286;2023-04-16T12:15:11;5.65;;;1.95;;
25175;SDS011;13135;55.166;61.286;2023-04-16T12:20:48;3.35;;;2.10;;
25175;SDS011;13135;55.166;61.286;2023-04-16T12:23:31;3.28;;;2.00;;
25175;SDS011;13135;55.166;61.286;2023-04-16T12:26:18;3.33;;;2.10;;
25175;SDS011;13135;55.166;61.286;2023-04-16T12:29:20;3.42;;;1.90;;
25175;SDS011;13135;55.166;61.286;2023-04-16T12:32:15;3.80;;;2.22;;
25175;SDS011;13135;55.166;61.286;2023-04-16T12:34:51;3.40;;;1.98;;
25175;SDS011;13135;55.166;61.286;2023-04-16T12:37:36;6.45;;;2.08;;
25175;SDS011;13135;55.166;61.286;2023-04-16T12:40:30;2.22;;;1.65;;
25175;SDS011;13135;55.166;61.286;2023-04-16T12:43:15;3.15;;;2.00;;
25175;SDS011;13135;55.166;61.286;2023-04-16T12:45:59;6.12;;;2.40;;
25175;SDS011;13135;55.166;61.286;2023-04-16T12:48:55;2.78;;;1.80;;
25175;SDS011;13135;55.166;61.286;2023-04-16T12:51:40;4.82;;;2.15;;
25175;SDS011;13135;55.166;61.286;2023-04-16T12:54:25;2.70;;;1.70;;
25175;SDS011;13135;55.166;61.286;2023-04-16T12:57:10;6.70;;;2.72;;
25175;SDS011;13135;55.166;61.286;2023-04-16T12:59:55;2.40;;;1.80;;
25175;SDS011;13135;55.166;61.286;2023-04-16T13:02:40;3.45;;;1.90;;
25175;SDS011;13135;55.166;61.286;2023-04-16T13:05:25;3.83;;;2.08;;
25175;SDS011;13135;55.166;61.286;2023-04-16T13:08:11;3.72;;;2.05;;
25175;SDS011;13135;55.166;61.286;2023-04-16T13:10:55;12.07;;;3.08;;
25175;SDS011;13135;55.166;61.286;2023-04-16T13:13:39;5.87;;;2.10;;
25175;SDS011;13135;55.166;61.286;2023-04-16T13:16:23;4.68;;;2.40;;
25175;SDS011;13135;55.166;61.286;2023-04-16T13:19:05;2.67;;;1.77;;
25175;SDS011;13135;55.166;61.286;2023-04-16T13:21:51;2.95;;;1.70;;
25175;SDS011;13135;55.166;61.286;2023-04-16T13:24:33;2.15;;;1.73;;
25175;SDS011;13135;55.166;61.286;2023-04-16T13:27:19;2.83;;;1.80;;
25175;SDS011;13135;55.166;61.286;2023-04-16T13:30:04;2.35;;;1.98;;
25175;SDS011;13135;55.166;61.286;2023-04-16T13:32:50;3.17;;;1.70;;
25175;SDS011;13135;55.166;61.286;2023-04-16T13:35:37;4.32;;;1.95;;
25175;SDS011;13135;55.166;61.286;2023-04-16T13:38:22;2.55;;;1.73;;
25175;SDS011;13135;55.166;61.286;2023-04-16T13:41:07;3.47;;;1.80;;
25175;SDS011;13135;55.166;61.286;2023-04-16T13:43:52;2.70;;;1.80;;
25175;SDS011;13135;55.166;61.286;2023-04-16T13:46:37;5.50;;;1.80;;
25175;SDS011;13135;55.166;61.286;2023-04-16T13:49:23;8.93;;;4.72;;
25175;SDS011;13135;55.166;61.286;2023-04-16T13:52:16;7.07;;;2.87;;
25175;SDS011;13135;55.166;61.286;2023-04-16T13:55:08;4.15;;;2.10;;
25175;SDS011;13135;55.166;61.286;2023-04-16T13:57:53;3.10;;;2.62;;
25175;SDS011;13135;55.166;61.286;2023-04-16T14:00:40;2.78;;;2.20;;
25175;SDS011;13135;55.166;61.286;2023-04-16T14:03:25;5.05;;;2.10;;
25175;SDS011;13135;55.166;61.286;2023-04-16T14:06:09;5.18;;;2.92;;
25175;SDS011;13135;55.166;61.286;2023-04-16T14:08:53;4.35;;;2.00;;
25175;SDS011;13135;55.166;61.286;2023-04-16T14:11:38;2.40;;;1.75;;
25175;SDS011;13135;55.166;61.286;2023-04-16T14:14:23;3.22;;;1.80;;
25175;SDS011;13135;55.166;61.286;2023-04-16T14:17:10;3.65;;;2.10;;
25175;SDS011;13135;55.166;61.286;2023-04-16T14:19:54;8.20;;;2.15;;
25175;SDS011;13135;55.166;61.286;2023-04-16T14:22:38;3.75;;;2.22;;
25175;SDS011;13135;55.166;61.286;2023-04-16T14:25:22;4.18;;;2.40;;
25175;SDS011;13135;55.166;61.286;2023-04-16T14:28:06;4.55;;;2.40;;
25175;SDS011;13135;55.166;61.286;2023-04-16T14:30:51;4.25;;;2.70;;
25175;SDS011;13135;55.166;61.286;2023-04-16T14:33:37;7.62;;;4.87;;
25175;SDS011;13135;55.166;61.286;2023-04-16T14:36:22;9.55;;;4.05;;
25175;SDS011;13135;55.166;61.286;2023-04-16T14:39:06;5.65;;;2.85;;
25175;SDS011;13135;55.166;61.286;2023-04-16T14:41:49;4.22;;;2.70;;
25175;SDS011;13135;55.166;61.286;2023-04-16T14:44:33;11.65;;;4.45;;
25175;SDS011;13135;55.166;61.286;2023-04-16T14:47:24;12.18;;;6.78;;
25175;SDS011;13135;55.166;61.286;2023-04-16T14:50:11;4.45;;;3.10;;
25175;SDS011;13135;55.166;61.286;2023-04-16T14:52:54;6.07;;;2.90;;
25175;SDS011;13135;55.166;61.286;2023-04-16T14:55:39;6.07;;;2.93;;
25175;SDS011;13135;55.166;61.286;2023-04-16T14:58:24;4.77;;;3.47;;
25175;SDS011;13135;55.166;61.286;2023-04-16T15:01:08;7.57;;;3.57;;
25175;SDS011;13135;55.166;61.286;2023-04-16T15:03:50;8.03;;;3.33;;
25175;SDS011;13135;55.166;61.286;2023-04-16T15:06:37;7.40;;;3.40;;
25175;SDS011;13135;55.166;61.286;2023-04-16T15:09:20;7.33;;;3.20;;
25175;SDS011;13135;55.166;61.286;2023-04-16T15:12:05;4.07;;;3.30;;
25175;SDS011;13135;55.166;61.286;2023-04-16T15:17:51;5.93;;;3.50;;
25175;SDS011;13135;55.166;61.286;2023-04-16T15:20:36;7.43;;;3.47;;
25175;SDS011;13135;55.166;61.286;2023-04-16T15:23:20;6.53;;;3.40;;
25175;SDS011;13135;55.166;61.286;2023-04-16T15:26:03;10.90;;;3.70;;
25175;SDS011;13135;55.166;61.286;2023-04-16T15:28:48;5.27;;;3.20;;
25175;SDS011;13135;55.166;61.286;2023-04-16T15:31:33;5.33;;;3.40;;
25175;SDS011;13135;55.166;61.286;2023-04-16T15:34:19;5.00;;;3.40;;
25175;SDS011;13135;55.166;61.286;2023-04-16T15:37:04;5.00;;;3.60;;
25175;SDS011;13135;55.166;61.286;2023-04-16T15:39:49;6.57;;;3.90;;
25175;SDS011;13135;55.166;61.286;2023-04-16T15:42:34;6.33;;;3.90;;
25175;SDS011;13135;55.166;61.286;2023-04-16T15:45:19;5.23;;;3.40;;
25175;SDS011;13135;55.166;61.286;2023-04-16T15:48:04;7.53;;;3.80;;
25175;SDS011;13135;55.166;61.286;2023-04-16T15:50:48;7.20;;;3.17;;
25175;SDS011;13135;55.166;61.286;2023-04-16T15:53:32;7.35;;;3.35;;
25175;SDS011;13135;55.166;61.286;2023-04-16T15:56:16;8.77;;;3.73;;
25175;SDS011;13135;55.166;61.286;2023-04-16T15:59:00;7.77;;;3.37;;
25175;SDS011;13135;55.166;61.286;2023-04-16T16:01:44;8.57;;;3.53;;
25175;SDS011;13135;55.166;61.286;2023-04-16T16:04:31;5.40;;;3.30;;
25175;SDS011;13135;55.166;61.286;2023-04-16T16:07:16;5.37;;;3.27;;
25175;SDS011;13135;55.166;61.286;2023-04-16T16:10:00;4.27;;;2.97;;
25175;SDS011;13135;55.166;61.286;2023-04-16T16:12:44;19.40;;;12.03;;
25175;SDS011;13135;55.166;61.286;2023-04-16T16:18:57;7.57;;;3.80;;
25175;SDS011;13135;55.166;61.286;2023-04-16T16:21:42;11.07;;;4.40;;
25175;SDS011;13135;55.166;61.286;2023-04-16T16:24:27;7.67;;;3.80;;
25175;SDS011;13135;55.166;61.286;2023-04-16T16:27:12;6.83;;;3.87;;
25175;SDS011;13135;55.166;61.286;2023-04-16T16:29:57;5.80;;;3.93;;
25175;SDS011;13135;55.166;61.286;2023-04-16T16:32:42;4.93;;;3.80;;
25175;SDS011;13135;55.166;61.286;2023-04-16T16:35:27;6.80;;;4.03;;
25175;SDS011;13135;55.166;61.286;2023-04-16T16:38:17;11.47;;;4.43;;
25175;SDS011;13135;55.166;61.286;2023-04-16T16:41:01;7.00;;;4.90;;
25175;SDS011;13135;55.166;61.286;2023-04-16T16:43:45;8.17;;;5.17;;
25175;SDS011;13135;55.166;61.286;2023-04-16T16:46:30;8.67;;;5.23;;
25175;SDS011;13135;55.166;61.286;2023-04-16T16:49:15;8.27;;;5.27;;
25175;SDS011;13135;55.166;61.286;2023-04-16T16:51:59;9.93;;;5.73;;
25175;SDS011;13135;55.166;61.286;2023-04-16T16:54:43;7.23;;;5.20;;
25175;SDS011;13135;55.166;61.286;2023-04-16T16:57:28;10.33;;;6.10;;
25175;SDS011;13135;55.166;61.286;2023-04-16T17:00:12;15.90;;;9.77;;